Terminal Aerodrome Forecast
Issued by NWS

Home | Current Version | Previous Version | Text Only | Print | Product List | Glossary On
Versions: 1 2 3 4 5 6 7 8 9 10 11 12 13 14 15 16 17 18 19 20 21
000
FTAK31 PAJN 291137
TAFAGY
TAF
PAGY 291137Z 2912/3012 21015KT P6SM -SHRA SCT025 OVC050
      TEMPO 2912/2916 21015G25KT
     FM292100 21018G28KT P6SM VCSH BKN050 OVC060
     FM300000 21010G20KT P6SM BKN050 OVC060
     FM300300 21010KT P6SM BKN050 BKN060
     FM300600 21005KT P6SM BKN050
      AMD LTD TO CLD VIS AND WIND=

USA.gov is the U.S. government's official web portal to all federal, state and local government web resources and services.